createdAt,value
2023-08-07T00:00:33.606Z,91.99
2023-08-07T00:03:01.497Z,92.92
2023-08-07T00:05:29.376Z,93.69
2023-08-07T00:07:57.055Z,92.96
2023-08-07T00:10:25.612Z,92.53
2023-08-07T00:12:53.208Z,93.47
2023-08-07T00:15:21.151Z,94.09
2023-08-07T00:17:49.046Z,93.99
2023-08-07T00:20:16.599Z,94.17
2023-08-07T00:22:44.147Z,94.34
2023-08-07T00:25:12.021Z,94.21
2023-08-07T00:27:39.496Z,94.87
2023-08-07T00:30:07.627Z,94.84
2023-08-07T00:32:35.493Z,95.31
2023-08-07T00:35:03.046Z,96.16
2023-08-07T00:37:30.553Z,95.61
2023-08-07T00:39:58.431Z,95.24
2023-08-07T00:42:25.987Z,94.83
2023-08-07T00:44:53.799Z,95.09
2023-08-07T00:47:22.060Z,95.07
2023-08-07T00:49:49.782Z,94.70
2023-08-07T00:52:20.147Z,94.27
2023-08-07T00:54:48.563Z,94.40
2023-08-07T00:57:18.015Z,95.01
2023-08-07T00:59:45.848Z,94.96
2023-08-07T01:02:14.883Z,94.82
2023-08-07T01:04:42.465Z,94.43
2023-08-07T01:07:10.244Z,94.22
2023-08-07T01:09:38.295Z,94.62
2023-08-07T01:12:17.559Z,95.29
2023-08-07T01:15:06.375Z,95.04
2023-08-07T01:17:35.860Z,94.76
2023-08-07T01:20:05.327Z,94.48
2023-08-07T01:22:32.925Z,94.54
2023-08-07T01:25:00.943Z,94.22
2023-08-07T01:27:45.226Z,95.17
2023-08-07T01:30:30.270Z,94.84
2023-08-07T01:33:09.710Z,94.47
2023-08-07T01:35:44.450Z,94.05
2023-08-07T01:38:14.068Z,93.78
2023-08-07T01:40:43.195Z,93.33
2023-08-07T01:43:10.854Z,93.42
2023-08-07T01:45:38.810Z,93.32
2023-08-07T01:48:06.432Z,93.24
2023-08-07T01:50:34.325Z,93.41
2023-08-07T01:53:03.672Z,93.32
2023-08-07T01:55:31.679Z,93.07
2023-08-07T01:57:59.428Z,93.25
2023-08-07T02:00:27.355Z,93.71
2023-08-07T02:02:54.934Z,93.50
2023-08-07T02:05:22.893Z,93.36
2023-08-07T02:07:50.541Z,92.85
2023-08-07T02:10:18.204Z,92.77
2023-08-07T02:12:46.131Z,92.57
2023-08-07T02:15:14.568Z,92.63
2023-08-07T02:17:42.775Z,92.67
2023-08-07T02:20:11.436Z,92.29
2023-08-07T02:22:39.037Z,92.17
2023-08-07T02:25:07.116Z,92.07
2023-08-07T02:27:34.955Z,92.27
2023-08-07T02:30:04.771Z,92.42
2023-08-07T02:32:32.481Z,92.68
2023-08-07T02:35:00.412Z,92.50
2023-08-07T02:37:28.067Z,92.50
2023-08-07T02:39:55.963Z,92.56
2023-08-07T02:42:23.778Z,92.77
2023-08-07T02:44:51.374Z,92.98
2023-08-07T02:47:19.413Z,92.46
2023-08-07T02:49:47.258Z,92.29
2023-08-07T02:52:14.842Z,92.60
2023-08-07T02:54:42.425Z,92.60
2023-08-07T02:57:10.353Z,92.63
2023-08-07T02:59:37.924Z,92.38
2023-08-07T03:02:05.866Z,92.84
2023-08-07T03:04:33.761Z,93.65
2023-08-07T03:07:01.796Z,93.29
2023-08-07T03:09:29.384Z,93.32
2023-08-07T03:11:57.203Z,94.43
2023-08-07T03:14:24.837Z,93.82
2023-08-07T03:16:52.525Z,93.06
2023-08-07T03:19:22.679Z,92.65
2023-08-07T03:21:50.687Z,93.20
2023-08-07T03:24:18.254Z,93.68
2023-08-07T03:26:48.516Z,93.68
2023-08-07T03:29:16.467Z,93.75
2023-08-07T03:31:44.416Z,94.24
2023-08-07T03:34:12.651Z,94.73
2023-08-07T03:36:40.238Z,95.03
2023-08-07T03:39:07.889Z,95.20
2023-08-07T03:41:35.766Z,95.40
2023-08-07T03:44:03.467Z,95.52
2023-08-07T03:46:31.156Z,95.40
2023-08-07T03:48:58.989Z,95.55
2023-08-07T03:51:27.213Z,95.09
2023-08-07T03:53:55.172Z,95.12
2023-08-07T03:56:23.140Z,95.32
2023-08-07T03:58:51.360Z,95.29
2023-08-07T04:01:19.594Z,95.25
2023-08-07T04:03:50.674Z,95.13
2023-08-07T04:06:18.395Z,95.21
2023-08-07T04:08:49.293Z,95.59
2023-08-07T04:11:17.284Z,95.11
2023-08-07T04:13:44.890Z,94.85
2023-08-07T04:16:12.500Z,94.99
2023-08-07T04:18:40.318Z,95.48
2023-08-07T04:21:08.042Z,95.82
2023-08-07T04:23:35.588Z,95.79
2023-08-07T04:26:03.613Z,95.88
2023-08-07T04:28:31.442Z,95.98
2023-08-07T04:30:59.092Z,96.27
2023-08-07T04:33:27.076Z,96.46
2023-08-07T04:35:54.651Z,96.39
2023-08-07T04:38:22.270Z,96.94
2023-08-07T04:40:51.250Z,97.00
2023-08-07T04:43:22.986Z,97.17
2023-08-07T04:45:50.896Z,97.37
2023-08-07T04:48:19.437Z,97.15
2023-08-07T04:50:47.131Z,97.71
2023-08-07T04:53:15.030Z,97.69
2023-08-07T04:55:42.621Z,98.14
2023-08-07T04:58:10.114Z,98.08
2023-08-07T05:00:37.956Z,98.44
2023-08-07T05:03:05.790Z,97.80
2023-08-07T05:05:33.426Z,97.73
2023-08-07T05:08:01.594Z,98.05
2023-08-07T05:10:29.192Z,97.83
2023-08-07T05:12:57.168Z,97.36
2023-08-07T05:15:25.673Z,97.22
2023-08-07T05:17:53.735Z,97.51
2023-08-07T05:20:21.379Z,97.10
2023-08-07T05:22:49.376Z,97.40
2023-08-07T05:25:18.173Z,97.23
2023-08-07T05:27:46.415Z,98.25
2023-08-07T05:30:14.785Z,98.58
2023-08-07T05:32:42.542Z,98.67
2023-08-07T05:35:10.226Z,98.47
2023-08-07T05:37:38.152Z,98.53
2023-08-07T05:40:06.488Z,98.71
2023-08-07T05:42:35.555Z,98.34
2023-08-07T05:45:04.044Z,98.21
2023-08-07T05:47:31.605Z,97.87
2023-08-07T05:49:59.233Z,97.84
2023-08-07T05:52:27.118Z,97.93
2023-08-07T05:54:55.134Z,97.03
2023-08-07T05:57:22.687Z,96.70
2023-08-07T05:59:50.568Z,96.88
2023-08-07T06:02:18.328Z,96.05
2023-08-07T06:04:46.442Z,95.52
2023-08-07T06:07:14.003Z,95.31
2023-08-07T06:09:41.624Z,95.87
2023-08-07T06:12:09.694Z,94.73
2023-08-07T06:14:38.447Z,95.22
2023-08-07T06:17:06.827Z,94.57
2023-08-07T06:19:34.664Z,93.93
2023-08-07T06:22:02.368Z,93.25
2023-08-07T06:24:30.192Z,93.78
2023-08-07T06:26:58.074Z,92.93
2023-08-07T06:29:25.613Z,92.14
2023-08-07T06:31:53.248Z,91.88
2023-08-07T06:34:21.207Z,90.82
2023-08-07T06:36:48.787Z,89.34
2023-08-07T06:39:16.402Z,88.84
2023-08-07T06:41:44.281Z,88.21
2023-08-07T06:44:12.621Z,85.90
2023-08-07T06:46:40.122Z,85.93
2023-08-07T06:49:08.224Z,85.76
2023-08-07T06:51:35.873Z,85.41
2023-08-07T06:54:03.428Z,84.02
2023-08-07T06:56:31.362Z,82.43
2023-08-07T06:58:59.651Z,81.37
2023-08-07T07:01:27.305Z,80.43
2023-08-07T07:03:55.275Z,79.38
2023-08-07T07:06:24.569Z,79.38
2023-08-07T07:08:55.227Z,79.11
2023-08-07T07:11:25.558Z,79.66
2023-08-07T07:13:53.599Z,79.14
2023-08-07T07:16:24.964Z,78.14
2023-08-07T07:18:53.003Z,79.01
2023-08-07T07:21:21.514Z,78.66
2023-08-07T07:23:49.075Z,79.04
2023-08-07T07:26:16.953Z,79.43
2023-08-07T07:28:44.550Z,79.26
2023-08-07T07:31:12.961Z,77.41
2023-08-07T07:33:42.565Z,77.27
2023-08-07T07:36:17.684Z,77.69
2023-08-07T07:38:48.455Z,77.35
2023-08-07T07:41:17.132Z,76.90
2023-08-07T07:43:45.044Z,75.46
2023-08-07T07:46:12.668Z,76.07
2023-08-07T07:48:40.275Z,75.81
2023-08-07T07:51:08.099Z,75.66
2023-08-07T07:53:35.857Z,74.82
2023-08-07T07:56:03.587Z,75.57
2023-08-07T07:58:31.480Z,74.62
2023-08-07T08:00:59.066Z,73.46
2023-08-07T08:03:27.117Z,72.93
2023-08-07T08:05:54.850Z,72.64
2023-08-07T08:08:22.509Z,72.04
2023-08-07T08:10:52.295Z,70.93
2023-08-07T08:13:20.146Z,70.30
2023-08-07T08:15:47.802Z,70.18
2023-08-07T08:18:15.849Z,69.12
2023-08-07T08:20:43.503Z,67.87
2023-08-07T08:23:11.104Z,68.29
2023-08-07T08:25:38.954Z,66.76
2023-08-07T08:28:06.557Z,65.67
2023-08-07T08:30:34.163Z,65.80
2023-08-07T08:33:02.257Z,64.52
2023-08-07T08:35:30.017Z,61.18
2023-08-07T08:37:57.629Z,59.52
2023-08-07T08:40:25.781Z,58.91
2023-08-07T08:42:59.126Z,57.62
2023-08-07T08:45:28.451Z,56.48
2023-08-07T08:48:05.810Z,56.25
2023-08-07T08:50:34.927Z,58.15
2023-08-07T08:53:04.131Z,57.26
2023-08-07T08:55:31.984Z,58.59
2023-08-07T08:58:01.994Z,60.25
2023-08-07T09:00:31.620Z,58.97
2023-08-07T09:03:00.211Z,59.33
2023-08-07T09:05:28.830Z,58.69
2023-08-07T09:07:57.427Z,58.61
2023-08-07T09:10:26.053Z,58.31
2023-08-07T09:13:06.481Z,56.27
2023-08-07T09:15:34.664Z,56.58
2023-08-07T09:18:06.327Z,55.14
2023-08-07T09:20:35.406Z,54.42
2023-08-07T09:23:03.273Z,52.61
2023-08-07T09:25:34.837Z,52.00
2023-08-07T09:28:06.729Z,52.71
2023-08-07T09:30:37.142Z,53.18
2023-08-07T09:33:05.465Z,52.61
2023-08-07T09:35:34.406Z,50.27
2023-08-07T09:38:02.709Z,49.28
2023-08-07T09:40:32.146Z,51.37
2023-08-07T09:43:02.465Z,51.27
2023-08-07T09:45:32.698Z,48.95
2023-08-07T09:48:07.502Z,47.11
2023-08-07T09:50:35.733Z,47.47
2023-08-07T09:53:03.490Z,48.26
2023-08-07T09:55:32.407Z,46.57
2023-08-07T09:58:03.318Z,45.65
2023-08-07T10:00:36.187Z,46.23
2023-08-07T10:03:06.145Z,45.51
2023-08-07T10:05:34.052Z,45.91
2023-08-07T10:08:02.320Z,45.44
2023-08-07T10:10:30.882Z,47.26
2023-08-07T10:13:04.080Z,46.69
2023-08-07T10:15:38.206Z,44.81
2023-08-07T10:18:06.148Z,44.78
2023-08-07T10:20:34.536Z,47.04
2023-08-07T10:23:08.796Z,47.27
2023-08-07T10:25:43.252Z,44.58
2023-08-07T10:28:13.694Z,45.72
2023-08-07T10:30:43.088Z,46.45
2023-08-07T10:33:13.044Z,46.57
2023-08-07T10:35:49.934Z,46.93
2023-08-07T10:38:24.736Z,47.30
2023-08-07T10:41:10.179Z,45.34
2023-08-07T10:43:41.645Z,44.09
2023-08-07T10:46:16.427Z,44.11
2023-08-07T10:48:48.278Z,43.82
2023-08-07T10:51:19.317Z,45.42
2023-08-07T10:53:52.578Z,46.69
2023-08-07T10:56:32.098Z,44.90
2023-08-07T10:58:59.749Z,46.55
2023-08-07T11:01:30.546Z,46.08
2023-08-07T11:04:01.503Z,44.85
2023-08-07T11:06:34.595Z,46.54
2023-08-07T11:09:06.288Z,47.07
2023-08-07T11:11:41.787Z,44.25
2023-08-07T11:14:20.582Z,45.97
2023-08-07T11:16:49.583Z,45.72
2023-08-07T11:19:19.092Z,46.85
2023-08-07T11:21:46.725Z,45.08
2023-08-07T11:24:15.335Z,44.80
2023-08-07T11:26:46.100Z,44.64
2023-08-07T11:29:18.854Z,42.79
2023-08-07T11:31:47.074Z,42.07
2023-08-07T11:34:14.958Z,43.54
2023-08-07T11:36:44.030Z,44.23
2023-08-07T11:39:12.702Z,45.88
2023-08-07T11:41:41.555Z,47.14
2023-08-07T11:44:09.565Z,49.28
2023-08-07T11:46:37.469Z,50.41
2023-08-07T11:49:05.844Z,52.56
2023-08-07T11:51:34.049Z,54.10
2023-08-07T11:54:02.336Z,54.76
2023-08-07T11:56:30.520Z,56.56
2023-08-07T11:58:59.187Z,57.92
2023-08-07T12:01:29.062Z,58.11
2023-08-07T12:04:18.723Z,58.62
2023-08-07T12:06:57.847Z,59.10
2023-08-07T12:09:29.966Z,60.51
2023-08-07T12:12:00.773Z,62.37
2023-08-07T12:14:32.455Z,65.57
2023-08-07T12:17:03.062Z,66.56
2023-08-07T12:19:41.711Z,68.27
2023-08-07T12:22:11.975Z,68.12
2023-08-07T12:24:41.642Z,67.57
2023-08-07T12:27:09.189Z,67.00
2023-08-07T12:29:36.763Z,67.55
2023-08-07T12:32:04.934Z,68.33
2023-08-07T12:35:14.651Z,67.88
2023-08-07T12:37:21.557Z,68.46
2023-08-07T12:44:50.242Z,68.14
2023-08-07T12:47:17.857Z,68.34
2023-08-07T12:49:47.341Z,67.68
2023-08-07T12:52:15.282Z,67.81
2023-08-07T12:54:42.833Z,67.62
2023-08-07T12:57:10.349Z,66.36
2023-08-07T12:59:38.230Z,65.44
2023-08-07T13:02:05.896Z,65.08
2023-08-07T13:04:34.978Z,64.59
2023-08-07T13:07:02.902Z,64.48
2023-08-07T13:09:32.129Z,61.69
2023-08-07T13:11:59.650Z,59.43
2023-08-07T13:14:27.557Z,58.93
2023-08-07T13:16:55.582Z,57.78
2023-08-07T13:19:23.537Z,57.20
2023-08-07T13:21:53.554Z,58.25
2023-08-07T13:24:21.113Z,55.76
2023-08-07T13:26:49.390Z,56.17
2023-08-07T13:29:17.315Z,56.56
2023-08-07T13:31:47.503Z,53.91
2023-08-07T13:34:15.655Z,54.06
2023-08-07T13:36:43.484Z,54.34
2023-08-07T13:39:12.537Z,53.29
2023-08-07T13:41:40.161Z,50.17
2023-08-07T13:44:08.025Z,49.67
2023-08-07T13:46:35.661Z,47.43
2023-08-07T13:49:03.417Z,47.52
2023-08-07T13:51:31.250Z,47.62
2023-08-07T13:53:58.813Z,43.87
2023-08-07T13:56:26.676Z,43.68
2023-08-07T13:58:56.019Z,42.37
2023-08-07T14:01:23.604Z,40.32
2023-08-07T14:03:51.461Z,38.82
2023-08-07T14:06:19.047Z,39.85
2023-08-07T14:08:47.035Z,39.06
2023-08-07T14:11:16.065Z,39.34
2023-08-07T14:13:45.096Z,39.01
2023-08-07T14:16:12.725Z,38.45
2023-08-07T14:18:40.742Z,37.80
2023-08-07T14:21:08.316Z,38.46
2023-08-07T14:23:35.951Z,39.36
2023-08-07T14:26:03.908Z,39.08
2023-08-07T14:28:31.563Z,38.79
2023-08-07T14:31:01.050Z,38.64
2023-08-07T14:33:29.882Z,38.13
2023-08-07T14:35:57.404Z,39.28
2023-08-07T14:38:24.929Z,38.82
2023-08-07T14:40:52.785Z,38.54
2023-08-07T14:43:20.410Z,38.86
2023-08-07T14:45:48.020Z,38.73
2023-08-07T14:48:16.560Z,38.25
2023-08-07T14:50:44.166Z,39.09
2023-08-07T14:53:11.739Z,39.84
2023-08-07T14:55:39.680Z,39.80
2023-08-07T14:58:07.213Z,40.19
2023-08-07T15:00:36.719Z,41.38
2023-08-07T15:03:04.790Z,41.08
2023-08-07T15:05:32.497Z,41.14
2023-08-07T15:08:01.814Z,41.17
2023-08-07T15:10:30.334Z,41.61
2023-08-07T15:12:58.203Z,41.76
2023-08-07T15:15:25.856Z,41.78
2023-08-07T15:17:53.897Z,42.49
2023-08-07T15:20:21.761Z,43.20
2023-08-07T15:22:49.416Z,43.61
2023-08-07T15:25:18.376Z,43.46
2023-08-07T15:27:45.902Z,43.46
2023-08-07T15:30:13.686Z,43.27
2023-08-07T15:32:42.252Z,43.97
2023-08-07T15:35:10.254Z,44.71
2023-08-07T15:37:37.866Z,44.53
2023-08-07T15:40:06.232Z,44.59
2023-08-07T15:42:33.752Z,44.72
2023-08-07T15:45:01.278Z,44.52
2023-08-07T15:47:29.159Z,44.76
2023-08-07T15:49:56.762Z,45.15
2023-08-07T15:52:24.318Z,45.56
2023-08-07T15:54:52.150Z,45.28
2023-08-07T15:57:19.710Z,45.16
2023-08-07T15:59:47.341Z,45.60
2023-08-07T16:02:15.261Z,45.17
2023-08-07T16:04:43.249Z,45.68
2023-08-07T16:07:10.917Z,45.50
2023-08-07T16:09:38.470Z,45.93
2023-08-07T16:12:06.585Z,45.62
2023-08-07T16:14:36.273Z,46.27
2023-08-07T16:17:05.871Z,46.15
2023-08-07T16:19:33.592Z,45.95
2023-08-07T16:22:01.246Z,45.23
2023-08-07T16:24:29.068Z,45.68
2023-08-07T16:26:56.881Z,45.29
2023-08-07T16:29:24.694Z,45.62
2023-08-07T16:31:53.487Z,45.45
2023-08-07T16:34:21.431Z,45.55
2023-08-07T16:36:49.043Z,45.19
2023-08-07T16:39:16.893Z,45.68
2023-08-07T16:41:46.803Z,45.90
2023-08-07T16:44:14.471Z,45.78
2023-08-07T16:46:42.369Z,46.08
2023-08-07T16:49:09.901Z,46.46
2023-08-07T16:51:37.402Z,46.59
2023-08-07T16:54:05.297Z,46.87
2023-08-07T16:56:32.840Z,46.43
2023-08-07T16:59:00.465Z,47.12
2023-08-07T17:01:28.312Z,47.49
2023-08-07T17:03:55.842Z,47.94
2023-08-07T17:06:23.416Z,48.03
2023-08-07T17:08:53.400Z,48.28
2023-08-07T17:11:21.345Z,48.28
2023-08-07T17:13:48.944Z,48.02
2023-08-07T17:16:16.888Z,48.66
2023-08-07T17:18:44.488Z,48.90
2023-08-07T17:21:12.039Z,49.21
2023-08-07T17:23:40.007Z,49.20
2023-08-07T17:26:08.071Z,49.08
2023-08-07T17:28:36.678Z,49.20
2023-08-07T17:31:04.743Z,49.39
2023-08-07T17:33:34.519Z,49.17
2023-08-07T17:36:02.156Z,49.26
2023-08-07T17:38:30.131Z,49.87
2023-08-07T17:40:57.661Z,50.28
2023-08-07T17:43:25.216Z,50.39
2023-08-07T17:45:53.468Z,50.75
2023-08-07T17:48:21.104Z,51.10
2023-08-07T17:50:49.586Z,51.28
2023-08-07T17:53:17.618Z,51.45
2023-08-07T17:55:45.250Z,51.32
2023-08-07T17:58:12.879Z,51.25
2023-08-07T18:00:41.132Z,51.45
2023-08-07T18:03:09.088Z,51.54
2023-08-07T18:05:36.819Z,51.90
2023-08-07T18:08:04.839Z,53.34
2023-08-07T18:10:32.948Z,54.32
2023-08-07T18:13:00.629Z,54.63
2023-08-07T18:15:28.262Z,55.42
2023-08-07T18:17:56.536Z,54.75
2023-08-07T18:20:24.222Z,55.39
2023-08-07T18:22:51.854Z,54.87
2023-08-07T18:25:19.745Z,54.88
2023-08-07T18:27:47.366Z,54.39
2023-08-07T18:30:14.933Z,59.59
2023-08-07T18:32:42.934Z,61.67
2023-08-07T18:35:10.517Z,61.08
2023-08-07T18:37:38.160Z,60.63
2023-08-07T18:40:06.943Z,61.90
2023-08-07T18:42:34.621Z,60.88
2023-08-07T18:45:02.243Z,61.38
2023-08-07T18:47:30.063Z,63.05
2023-08-07T18:49:57.629Z,62.88
2023-08-07T18:52:25.188Z,64.29
2023-08-07T18:54:53.373Z,64.76
2023-08-07T18:57:20.928Z,66.29
2023-08-07T18:59:48.451Z,66.72
2023-08-07T19:02:16.576Z,68.97
2023-08-07T19:04:44.134Z,69.67
2023-08-07T19:07:12.132Z,68.21
2023-08-07T19:09:40.032Z,69.44
2023-08-07T19:12:08.158Z,68.02
2023-08-07T19:14:35.750Z,70.14
2023-08-07T19:17:07.227Z,71.60
2023-08-07T19:19:36.302Z,71.87
2023-08-07T19:22:04.913Z,70.11
2023-08-07T19:24:32.566Z,71.64
2023-08-07T19:27:00.730Z,72.36
2023-08-07T19:29:29.008Z,71.15
2023-08-07T19:31:56.651Z,71.74
2023-08-07T19:34:25.744Z,72.87
2023-08-07T19:36:53.575Z,73.94
2023-08-07T19:39:23.783Z,73.48
2023-08-07T19:41:51.838Z,74.71
2023-08-07T19:44:19.767Z,73.25
2023-08-07T19:46:47.335Z,72.19
2023-08-07T19:49:14.835Z,71.54
2023-08-07T19:51:42.872Z,70.78
2023-08-07T19:54:10.540Z,72.68
2023-08-07T19:56:38.101Z,71.66
2023-08-07T19:59:06.334Z,70.24
2023-08-07T20:01:34.183Z,71.40
2023-08-07T20:04:02.234Z,71.34
2023-08-07T20:06:36.595Z,71.65
2023-08-07T20:09:04.601Z,73.19
2023-08-07T20:11:37.475Z,71.67
2023-08-07T20:14:05.546Z,72.86
2023-08-07T20:16:33.417Z,72.98
2023-08-07T20:19:01.330Z,73.20
2023-08-07T20:21:29.558Z,74.38
2023-08-07T20:23:57.828Z,74.86
2023-08-07T20:26:25.499Z,76.17
2023-08-07T20:28:53.555Z,76.01
2023-08-07T20:31:21.125Z,75.85
2023-08-07T20:33:48.730Z,74.75
2023-08-07T20:36:16.998Z,75.16
2023-08-07T20:38:44.636Z,74.25
2023-08-07T20:41:12.161Z,73.80
2023-08-07T20:43:40.058Z,72.94
2023-08-07T20:46:07.990Z,72.57
2023-08-07T20:48:35.650Z,71.83
2023-08-07T20:51:03.518Z,71.87
2023-08-07T20:53:31.362Z,71.69
2023-08-07T20:55:58.968Z,71.94
2023-08-07T20:58:26.935Z,72.22
2023-08-07T21:00:57.266Z,72.75
2023-08-07T21:03:24.942Z,72.72
2023-08-07T21:05:52.846Z,72.68
2023-08-07T21:08:20.414Z,72.59
2023-08-07T21:10:48.166Z,71.70
2023-08-07T21:13:16.104Z,71.10
2023-08-07T21:15:43.838Z,71.00
2023-08-07T21:18:11.465Z,70.78
2023-08-07T21:20:39.435Z,70.35
2023-08-07T21:23:09.810Z,69.72
2023-08-07T21:25:37.369Z,70.17
2023-08-07T21:28:05.706Z,69.67
2023-08-07T21:30:33.358Z,69.07
2023-08-07T21:33:01.064Z,68.95
2023-08-07T21:35:29.129Z,68.55
2023-08-07T21:37:56.673Z,68.40
2023-08-07T21:40:25.015Z,67.96
2023-08-07T21:42:52.975Z,68.76
2023-08-07T21:45:20.516Z,68.19
2023-08-07T21:47:48.096Z,68.66
2023-08-07T21:50:15.945Z,67.97
2023-08-07T21:52:43.460Z,68.75
2023-08-07T21:55:11.092Z,69.05
2023-08-07T21:57:38.995Z,69.79
2023-08-07T22:00:07.560Z,70.67
2023-08-07T22:02:40.205Z,70.72
2023-08-07T22:05:08.911Z,71.35
2023-08-07T22:07:37.962Z,71.04
2023-08-07T22:10:10.050Z,71.89
2023-08-07T22:12:38.025Z,72.13
2023-08-07T22:15:06.145Z,71.86
2023-08-07T22:17:33.733Z,71.95
2023-08-07T22:20:05.351Z,70.99
2023-08-07T22:22:33.441Z,71.34
2023-08-07T22:25:01.401Z,70.69
2023-08-07T22:27:28.959Z,70.58
2023-08-07T22:29:56.560Z,70.81
2023-08-07T22:32:24.481Z,70.35
2023-08-07T22:34:52.034Z,69.85
2023-08-07T22:37:19.648Z,70.73
2023-08-07T22:39:48.098Z,70.31
2023-08-07T22:42:15.705Z,70.95
2023-08-07T22:44:43.251Z,70.96
2023-08-07T22:47:11.113Z,70.85
2023-08-07T22:49:38.738Z,70.82
2023-08-07T22:52:06.623Z,70.30
2023-08-07T22:54:34.483Z,70.72
2023-08-07T22:57:02.072Z,70.42
2023-08-07T22:59:29.665Z,70.67
2023-08-07T23:01:57.887Z,70.15
2023-08-07T23:04:25.792Z,70.10
2023-08-07T23:06:53.337Z,69.61
2023-08-07T23:09:21.237Z,70.04
2023-08-07T23:11:48.768Z,70.42
2023-08-07T23:14:16.341Z,69.90
2023-08-07T23:16:45.655Z,70.52
2023-08-07T23:19:13.363Z,69.86
2023-08-07T23:21:40.874Z,70.45
2023-08-07T23:24:08.872Z,70.18
2023-08-07T23:26:36.432Z,69.82
2023-08-07T23:29:03.985Z,70.29
2023-08-07T23:31:32.052Z,70.27
2023-08-07T23:33:59.652Z,70.26
2023-08-07T23:36:27.237Z,70.30
2023-08-07T23:38:55.072Z,70.39
2023-08-07T23:41:22.703Z,70.25
2023-08-07T23:43:50.237Z,70.90
2023-08-07T23:46:18.121Z,70.94
2023-08-07T23:48:45.729Z,71.15
2023-08-07T23:51:13.267Z,71.15
2023-08-07T23:53:41.078Z,70.99
2023-08-07T23:56:09.035Z,71.46
2023-08-07T23:58:36.752Z,70.95
